Time;durP1;ratioP1;P1;durP2;ratioP2;P2;SDS_P1;SDS_P2;PMS_P1;PMS_P2;Temp;Humidity;BMP_temperature;BMP_pressure;BME280_temperature;BME280_humidity;BME280_pressure;Samples;Min_cycle;Max_cycle;Signal;HPM_P1;HPM_P2
2021/01/29 00:00:09;;;;;;;;;;;;;;;-3.63;100.00;99662.63;5113163;28;19924;-70
2021/01/29 00:02:37;;;;;;;;;;;;;;;-3.64;100.00;99664.41;5113158;28;19998;-69
2021/01/29 00:05:03;;;;;;;;;;;;;;;-3.67;100.00;99669.84;5113164;28;19924;-69
2021/01/29 00:07:29;;;;;;;;;;;;;;;-3.70;100.00;99680.59;5112651;28;20430;-69
2021/01/29 00:09:55;;;;;;;;;;;;;;;-3.73;100.00;99678.03;5113038;28;19924;-69
2021/01/29 00:12:22;;;;;;;;;;;;;;;-3.75;100.00;99683.41;5112955;28;20274;-69
2021/01/29 00:14:47;;;;;;;;;;;;;;;-3.74;100.00;99698.41;5111684;28;20285;-69
2021/01/29 00:17:14;;;;;;;;;;;;;;;-3.73;100.00;99691.28;5112596;28;19924;-69
2021/01/29 00:19:40;;;;;;;;;;;;;;;-3.67;100.00;99693.72;5112820;28;19970;-69
2021/01/29 00:22:06;;;;;;;;;;;;;;;-3.63;100.00;99683.88;5112840;28;19951;-69
2021/01/29 00:24:31;;;;;;;;;;;;;;;-3.61;100.00;99689.97;5112669;28;19931;-69
2021/01/29 00:26:57;;;;;;;;;;;;;;;-3.57;100.00;99695.09;5112481;28;19924;-69
2021/01/29 00:29:23;;;;;;;;;;;;;;;-3.54;100.00;99689.66;5112712;28;20269;-69
2021/01/29 00:31:49;;;;;;;;;;;;;;;-3.51;100.00;99699.28;5112515;28;19923;-69
2021/01/29 00:34:15;;;;;;;;;;;;;;;-3.49;100.00;99704.53;5112546;28;20351;-69
2021/01/29 00:36:41;;;;;;;;;;;;;;;-3.46;100.00;99685.81;5112193;28;19924;-69
2021/01/29 00:39:07;;;;;;;;;;;;;;;-3.44;100.00;99679.53;5112295;28;19930;-69
2021/01/29 00:41:33;;;;;;;;;;;;;;;-3.43;100.00;99670.66;5112441;28;19923;-69
2021/01/29 00:43:58;;;;;;;;;;;;;;;-3.40;100.00;99677.63;5112423;28;20702;-69
2021/01/29 00:46:24;;;;;;;;;;;;;;;-3.39;100.00;99671.41;5110036;28;19927;-70
2021/01/29 00:48:51;;;;;;;;;;;;;;;-3.37;100.00;99665.09;5111102;28;20019;-69
2021/01/29 00:51:17;;;;;;;;;;;;;;;-3.37;100.00;99665.09;5112219;28;20014;-69
2021/01/29 00:53:43;;;;;;;;;;;;;;;-3.39;100.00;99669.59;5112199;28;19924;-69
2021/01/29 00:56:18;;;;;;;;;;;;;;;-3.41;100.00;99668.81;5110748;28;20022;-69
2021/01/29 00:58:59;;;;;;;;;;;;;;;-3.39;100.00;99666.09;5111057;28;19931;-69
2021/01/29 01:01:54;;;;;;;;;;;;;;;-3.36;100.00;99660.66;5112003;28;20373;-69
2021/01/29 01:04:20;;;;;;;;;;;;;;;-3.34;100.00;99652.63;5112121;28;19976;-69
2021/01/29 01:06:47;;;;;;;;;;;;;;;-3.32;100.00;99658.75;5111649;28;19932;-69
2021/01/29 01:09:31;;;;;;;;;;;;;;;-3.33;100.00;99657.84;5111977;28;20019;-69
2021/01/29 01:11:57;;;;;;;;;;;;;;;-3.32;100.00;99656.94;5112102;28;19924;-69
2021/01/29 01:14:42;;;;;;;;;;;;;;;-3.28;100.00;99652.38;5112011;28;19982;-69
2021/01/29 01:17:26;;;;;;;;;;;;;;;-3.28;100.00;99671.81;5110471;28;19973;-69
2021/01/29 01:20:22;;;;;;;;;;;;;;;-3.30;100.00;99660.41;5099374;28;19924;-69
2021/01/29 01:22:49;;;;;;;;;;;;;;;-3.31;100.00;99652.47;5111675;28;19970;-69
2021/01/29 01:25:24;;;;;;;;;;;;;;;-3.30;100.00;99656.88;5110706;28;19924;-69
2021/01/29 01:27:51;;;;;;;;;;;;;;;-3.30;100.00;99660.41;5111573;28;19970;-69
2021/01/29 01:30:32;;;;;;;;;;;;;;;-3.30;100.00;99655.09;5110651;28;19924;-69
2021/01/29 01:32:59;;;;;;;;;;;;;;;-3.30;100.00;99657.75;5110583;28;19924;-70
2021/01/29 01:35:43;;;;;;;;;;;;;;;-3.31;100.00;99645.41;5111435;28;20381;-69
2021/01/29 01:38:10;;;;;;;;;;;;;;;-3.29;100.00;99653.31;5111761;28;19923;-69
2021/01/29 01:40:46;;;;;;;;;;;;;;;-3.30;100.00;99654.22;5110000;28;20014;-69
2021/01/29 01:43:17;;;;;;;;;;;;;;;-3.33;100.00;99655.22;5110533;28;19966;-69
2021/01/29 01:45:59;;;;;;;;;;;;;;;-3.34;100.00;99649.97;5110259;28;19946;-70
2021/01/29 01:48:31;;;;;;;;;;;;;;;-3.33;100.00;99657.00;5111721;28;20359;-70
2021/01/29 01:51:20;;;;;;;;;;;;;;;-3.36;100.00;99665.97;5111655;28;19977;-70
2021/01/29 01:53:49;;;;;;;;;;;;;;;-3.36;100.00;99658.84;5110571;28;19927;-70
2021/01/29 01:56:30;;;;;;;;;;;;;;;-3.37;100.00;99665.09;5110396;28;19935;-70
2021/01/29 01:59:17;;;;;;;;;;;;;;;-3.34;100.00;99657.94;5115456;28;19930;-70
2021/01/29 02:02:01;;;;;;;;;;;;;;;-3.32;100.00;99661.41;5115508;28;19927;-70
2021/01/29 02:04:47;;;;;;;;;;;;;;;-3.31;100.00;99660.44;5115607;28;19932;-70
2021/01/29 02:07:38;;;;;;;;;;;;;;;-3.30;100.00;99660.41;5113833;28;19953;-71
2021/01/29 02:10:32;;;;;;;;;;;;;;;-3.29;100.00;99655.94;5098750;28;19923;-71
2021/01/29 02:12:59;;;;;;;;;;;;;;;-3.28;100.00;99671.81;5114036;28;20072;-71
2021/01/29 02:15:29;;;;;;;;;;;;;;;-3.29;100.00;99678.03;5113934;28;19931;-71
2021/01/29 02:18:03;;;;;;;;;;;;;;;-3.31;100.00;99666.63;5113594;28;19924;-71
2021/01/29 02:20:57;;;;;;;;;;;;;;;-3.29;100.00;99662.13;5113792;28;19942;-71
2021/01/29 02:24:15;;;;;;;;;;;;;;;-3.32;100.00;99651.63;5115015;28;20397;-71
2021/01/29 02:26:58;;;;;;;;;;;;;;;-3.29;100.00;99646.19;5114775;28;19931;-71
2021/01/29 02:29:45;;;;;;;;;;;;;;;-3.27;100.00;99662.94;5113820;28;20428;-71
2021/01/29 02:32:35;;;;;;;;;;;;;;;-3.25;100.00;99660.22;5088781;28;19924;-71
2021/01/29 02:35:28;;;;;;;;;;;;;;;-3.26;100.00;99658.47;5113620;28;20414;-71
2021/01/29 02:38:05;;;;;;;;;;;;;;;-3.24;100.00;99664.59;5065865;28;19980;-70
2021/01/29 02:40:48;;;;;;;;;;;;;;;-3.22;100.00;99653.00;5113378;28;19971;-70
2021/01/29 02:43:32;;;;;;;;;;;;;;;-3.18;100.00;99647.53;5113661;28;20028;-70
2021/01/29 02:46:43;;;;;;;;;;;;;;;-3.22;100.00;99637.06;5051363;28;20015;-71
2021/01/29 02:49:41;;;;;;;;;;;;;;;-3.22;100.00;99636.19;5050890;28;19924;-70
2021/01/29 02:52:31;;;;;;;;;;;;;;;-3.24;100.00;99627.44;5105231;28;20034;-70
2021/01/29 02:55:26;;;;;;;;;;;;;;;-3.26;100.00;99624.84;5098035;28;20400;-70
2021/01/29 02:58:12;;;;;;;;;;;;;;;-3.27;100.00;99630.22;5113542;28;19969;-70
2021/01/29 03:01:08;;;;;;;;;;;;;;;-3.29;100.00;99624.94;5114505;28;20023;-70
2021/01/29 03:03:38;;;;;;;;;;;;;;;-3.29;100.00;99613.47;5114151;28;20000;-70
2021/01/29 03:06:28;;;;;;;;;;;;;;;-3.30;100.00;99623.25;5114937;28;19924;-70
2021/01/29 03:08:56;;;;;;;;;;;;;;;-3.35;100.00;99619.91;5112966;28;20320;-70
2021/01/29 03:11:42;;;;;;;;;;;;;;;-3.39;100.00;99620.97;5114745;28;19931;-70
2021/01/29 03:14:33;;;;;;;;;;;;;;;-3.43;100.00;99614.06;5114147;28;19986;-70
2021/01/29 03:17:21;;;;;;;;;;;;;;;-3.47;100.00;99602.72;5113574;28;19949;-71
2021/01/29 03:20:08;;;;;;;;;;;;;;;-3.50;100.00;99609.94;5114004;28;19934;-70
2021/01/29 03:23:15;;;;;;;;;;;;;;;-3.49;100.00;99601.03;5091216;28;19924;-70
2021/01/29 03:26:02;;;;;;;;;;;;;;;-3.54;100.00;99604.75;5090922;28;19931;-70
2021/01/29 03:28:49;;;;;;;;;;;;;;;-3.54;100.00;99602.09;5108364;28;19930;-70
2021/01/29 03:31:35;;;;;;;;;;;;;;;-3.55;100.00;99592.41;5113707;28;19923;-70
2021/01/29 03:34:27;;;;;;;;;;;;;;;-3.56;100.00;99595.13;5075145;28;19924;-70
2021/01/29 03:37:15;;;;;;;;;;;;;;;-3.58;100.00;99579.28;5113481;28;20346;-70
2021/01/29 03:40:00;;;;;;;;;;;;;;;-3.57;100.00;99585.44;5113459;28;19931;-70
2021/01/29 03:42:52;;;;;;;;;;;;;;;-3.59;100.00;99574.03;5113524;28;19928;-70
2021/01/29 03:45:49;;;;;;;;;;;;;;;-3.62;100.00;99564.41;5057560;28;20358;-70
2021/01/29 03:48:38;;;;;;;;;;;;;;;-3.69;100.00;99568.22;5113388;28;19924;-70
2021/01/29 03:51:27;;;;;;;;;;;;;;;-3.73;100.00;99578.13;5113416;28;19974;-70
2021/01/29 03:54:16;;;;;;;;;;;;;;;-3.79;100.00;99574.84;5113408;28;19977;-71
2021/01/29 03:57:02;;;;;;;;;;;;;;;-3.82;100.00;99573.19;5113055;28;19924;-70
2021/01/29 03:59:54;;;;;;;;;;;;;;;-3.87;100.00;99564.53;5113050;28;20019;-71
2021/01/29 04:02:47;;;;;;;;;;;;;;;-3.95;100.00;99562.19;5112998;28;20357;-70
2021/01/29 04:05:36;;;;;;;;;;;;;;;-4.07;100.00;99555.59;5112980;28;19931;-70
2021/01/29 04:08:23;;;;;;;;;;;;;;;-4.16;100.00;99553.31;5113071;28;20502;-70
2021/01/29 04:11:08;;;;;;;;;;;;;;;-4.23;100.00;99549.19;5112984;28;19930;-70
2021/01/29 04:13:48;;;;;;;;;;;;;;;-4.35;100.00;99545.22;5111663;28;20407;-70
2021/01/29 04:16:24;;;;;;;;;;;;;;;-4.43;100.00;99553.44;5111439;28;20393;-70
2021/01/29 04:18:51;;;;;;;;;;;;;;;-4.50;100.00;99556.38;5112781;28;20021;-70
2021/01/29 04:21:20;;;;;;;;;;;;;;;-4.57;100.00;99556.63;5112651;28;20026;-71
2021/01/29 04:23:50;;;;;;;;;;;;;;;-4.61;100.00;99552.38;5112578;28;20034;-70
2021/01/29 04:26:18;;;;;;;;;;;;;;;-4.67;100.00;99549.94;5111220;28;19931;-70
2021/01/29 04:28:45;;;;;;;;;;;;;;;-4.65;100.00;99540.19;5112575;28;20343;-70
2021/01/29 04:31:13;;;;;;;;;;;;;;;-4.66;100.00;99533.16;5112570;28;19931;-70
2021/01/29 04:33:42;;;;;;;;;;;;;;;-4.68;100.00;99534.97;5112475;28;20403;-70
2021/01/29 04:36:09;;;;;;;;;;;;;;;-4.66;100.00;99527.84;5112362;28;20415;-70
2021/01/29 04:38:41;;;;;;;;;;;;;;;-4.61;100.00;99523.25;5112294;28;19935;-71
2021/01/29 04:41:16;;;;;;;;;;;;;;;-4.59;100.00;99518.72;5112394;28;19967;-69
2021/01/29 04:43:51;;;;;;;;;;;;;;;-4.61;100.00;99510.00;5112331;28;19931;-70
2021/01/29 04:46:25;;;;;;;;;;;;;;;-4.55;100.00;99523.00;5112137;28;20389;-69
2021/01/29 04:48:54;;;;;;;;;;;;;;;-4.50;100.00;99514.00;5112356;28;19977;-70
2021/01/29 04:51:32;;;;;;;;;;;;;;;-4.45;100.00;99504.09;5112431;28;20413;-69
2021/01/29 04:54:15;;;;;;;;;;;;;;;-4.39;100.00;99482.66;5111123;28;19923;-70
2021/01/29 04:57:03;;;;;;;;;;;;;;;-4.33;100.00;99477.09;5111873;28;19924;-69
2021/01/29 04:59:41;;;;;;;;;;;;;;;-4.29;100.00;99480.50;5112142;28;19923;-70
2021/01/29 05:02:37;;;;;;;;;;;;;;;-4.26;100.00;99468.00;5112203;28;19982;-69
2021/01/29 05:05:32;;;;;;;;;;;;;;;-4.25;100.00;99461.78;5112168;28;19923;-68
2021/01/29 05:08:34;;;;;;;;;;;;;;;-4.22;100.00;99461.66;5095758;28;19924;-70
2021/01/29 05:11:56;;;;;;;;;;;;;;;-4.18;100.00;99453.56;5048701;28;19928;-70
2021/01/29 05:14:35;;;;;;;;;;;;;;;-4.16;100.00;99441.97;5048780;28;19969;-71
2021/01/29 05:17:11;;;;;;;;;;;;;;;-4.15;100.00;99437.56;5090784;28;19979;-71
2021/01/29 05:19:48;;;;;;;;;;;;;;;-4.17;100.00;99429.63;5112104;28;19963;-69
2021/01/29 05:22:29;;;;;;;;;;;;;;;-4.17;100.00;99426.13;5104922;28;19978;-69
2021/01/29 05:25:12;;;;;;;;;;;;;;;-4.18;100.00;99408.50;5109251;28;20314;-69
2021/01/29 05:28:00;;;;;;;;;;;;;;;-4.25;100.00;99400.81;5091413;28;19931;-69
2021/01/29 05:30:50;;;;;;;;;;;;;;;-4.30;100.00;99394.84;5093478;28;20355;-69
2021/01/29 05:33:29;;;;;;;;;;;;;;;-4.29;100.00;99396.59;5095027;28;20022;-69
2021/01/29 05:36:05;;;;;;;;;;;;;;;-4.32;100.00;99383.44;5100421;28;19962;-69
2021/01/29 05:38:38;;;;;;;;;;;;;;;-4.40;100.00;99377.59;5116020;28;19931;-69
2021/01/29 05:41:14;;;;;;;;;;;;;;;-4.47;100.00;99377.00;5113175;28;19963;-69
2021/01/29 05:43:57;;;;;;;;;;;;;;;-4.58;100.00;99364.19;5116050;27;19924;-69
2021/01/29 05:46:26;;;;;;;;;;;;;;;-4.70;100.00;99359.41;5105602;28;19967;-69
2021/01/29 05:49:01;;;;;;;;;;;;;;;-4.80;100.00;99361.53;5105746;28;19952;-69
2021/01/29 05:51:32;;;;;;;;;;;;;;;-4.91;100.00;99359.31;5094247;28;19978;-69
2021/01/29 05:54:11;;;;;;;;;;;;;;;-5.01;100.00;99357.97;5108351;28;20337;-69
2021/01/29 05:56:46;;;;;;;;;;;;;;;-5.13;100.00;99361.06;5107583;28;20042;-68
2021/01/29 05:59:29;;;;;;;;;;;;;;;-5.25;100.00;99352.69;5115330;28;20397;-69
2021/01/29 06:02:06;;;;;;;;;;;;;;;-5.33;100.00;99357.41;5115377;28;20018;-68
2021/01/29 06:04:50;;;;;;;;;;;;;;;-5.34;100.00;99362.75;5115492;28;19955;-68
2021/01/29 06:07:39;;;;;;;;;;;;;;;-5.44;100.00;99357.81;5114779;28;19928;-68
2021/01/29 06:10:15;;;;;;;;;;;;;;;-5.55;100.00;99360.00;5115517;28;19967;-68
2021/01/29 06:12:51;;;;;;;;;;;;;;;-5.60;100.00;99352.25;5114099;28;20342;-68
2021/01/29 06:15:49;;;;;;;;;;;;;;;-5.63;100.00;99354.13;5114063;28;20373;-68
2021/01/29 06:18:33;;;;;;;;;;;;;;;-5.62;100.00;99356.72;5057641;28;19971;-69
2021/01/29 06:21:08;;;;;;;;;;;;;;;-5.71;100.00;99368.47;5071985;28;19924;-69
2021/01/29 06:23:45;;;;;;;;;;;;;;;-5.78;100.00;99366.97;5095100;28;20022;-68
2021/01/29 06:26:19;;;;;;;;;;;;;;;-5.81;100.00;99366.22;5113505;28;19947;-69
2021/01/29 06:29:04;;;;;;;;;;;;;;;-5.81;100.00;99366.22;5094449;28;20001;-68
2021/01/29 06:32:00;;;;;;;;;;;;;;;-5.80;100.00;99352.09;5110481;28;19924;-68
2021/01/29 06:34:34;;;;;;;;;;;;;;;-5.88;100.00;99345.31;5106260;28;20031;-68
2021/01/29 06:37:10;;;;;;;;;;;;;;;-5.92;100.00;99341.03;5093978;28;20074;-68
2021/01/29 06:39:45;;;;;;;;;;;;;;;-5.90;100.00;99346.28;5103121;28;19928;-69
2021/01/29 06:42:24;;;;;;;;;;;;;;;-5.90;100.00;99343.63;5111627;27;20035;-69
2021/01/29 06:45:15;;;;;;;;;;;;;;;-5.92;100.00;99343.69;5099894;28;20022;-69
2021/01/29 06:47:50;;;;;;;;;;;;;;;-5.89;100.00;99343.56;5109326;28;20377;-69
2021/01/29 06:50:25;;;;;;;;;;;;;;;-5.88;100.00;99334.72;5104165;28;19935;-69
2021/01/29 06:53:03;;;;;;;;;;;;;;;-5.89;100.00;99342.72;5096780;28;20023;-69
2021/01/29 06:55:44;;;;;;;;;;;;;;;-5.82;100.00;99349.50;5098571;28;20357;-69
2021/01/29 06:58:32;;;;;;;;;;;;;;;-5.75;100.00;99360.72;5098505;28;20335;-69
2021/01/29 07:01:16;;;;;;;;;;;;;;;-5.63;100.00;99354.97;5099842;28;19959;-69
2021/01/29 07:03:56;;;;;;;;;;;;;;;-5.48;100.00;99348.25;5092653;28;19939;-70
2021/01/29 07:06:29;;;;;;;;;;;;;;;-5.30;100.00;99344.06;5092204;28;19948;-69
2021/01/29 07:09:02;;;;;;;;;;;;;;;-5.14;100.00;99324.97;5101808;28;20462;-70
2021/01/29 07:11:37;;;;;;;;;;;;;;;-4.99;100.00;99324.34;5114071;28;19954;-69
2021/01/29 07:14:27;;;;;;;;;;;;;;;-4.82;100.00;99325.44;5108288;28;19959;-69
2021/01/29 07:16:59;;;;;;;;;;;;;;;-4.67;100.00;99316.88;5097196;28;20464;-69
2021/01/29 07:19:30;;;;;;;;;;;;;;;-4.55;100.00;99308.44;5112783;28;19930;-69
2021/01/29 07:22:16;;;;;;;;;;;;;;;-4.42;100.00;99313.22;5113400;28;20384;-69
2021/01/29 07:24:45;;;;;;;;;;;;;;;-4.28;100.00;99315.28;5093313;28;19987;-68
2021/01/29 07:27:21;;;;;;;;;;;;;;;-4.23;100.00;99311.50;5094423;28;20445;-69
2021/01/29 07:29:52;;;;;;;;;;;;;;;-4.13;100.00;99309.34;5111805;28;19963;-69
2021/01/29 07:32:24;;;;;;;;;;;;;;;-4.02;100.00;99306.22;5092057;28;20397;-69
2021/01/29 07:34:55;;;;;;;;;;;;;;;-3.96;100.00;99299.78;5096583;28;20427;-69
2021/01/29 07:37:35;;;;;;;;;;;;;;;-3.92;100.00;99306.66;5100655;28;20011;-68
2021/01/29 07:40:18;;;;;;;;;;;;;;;-3.83;100.00;99305.41;5106924;28;20025;-68
2021/01/29 07:42:57;;;;;;;;;;;;;;;-3.82;100.00;99293.84;5108060;28;19977;-69
2021/01/29 07:45:30;;;;;;;;;;;;;;;-3.89;100.00;99295.91;5112388;28;19986;-69
2021/01/29 07:48:08;;;;;;;;;;;;;;;-3.85;100.00;99291.34;5113271;28;19931;-68
2021/01/29 07:50:38;;;;;;;;;;;;;;;-3.74;100.00;99289.06;5093323;28;19974;-68
2021/01/29 07:53:07;;;;;;;;;;;;;;;-3.64;100.00;99290.38;5092960;28;19924;-68
2021/01/29 07:55:46;;;;;;;;;;;;;;;-3.64;100.00;99282.41;5110522;28;19959;-67
2021/01/29 07:58:16;;;;;;;;;;;;;;;-3.60;100.00;99281.31;5112610;28;19970;-68
2021/01/29 08:00:52;;;;;;;;;;;;;;;-3.60;100.00;99276.03;5092367;28;20443;-68
2021/01/29 08:03:47;;;;;;;;;;;;;;;-3.50;100.00;99276.47;5104317;28;20022;-68
2021/01/29 08:06:14;;;;;;;;;;;;;;;-3.33;100.00;99266.84;5095227;28;20288;-68
2021/01/29 08:08:46;;;;;;;;;;;;;;;-3.19;100.00;99259.09;5112987;28;20426;-68
2021/01/29 08:11:14;;;;;;;;;;;;;;;-3.15;100.00;99257.13;5110169;28;19973;-68
2021/01/29 08:13:45;;;;;;;;;;;;;;;-3.13;100.00;99237.56;5092520;28;19967;-69
2021/01/29 08:16:27;;;;;;;;;;;;;;;-3.12;100.00;99231.31;5110381;28;19924;-68
2021/01/29 08:18:56;;;;;;;;;;;;;;;-3.06;100.00;99224.84;5108225;28;19981;-67
2021/01/29 08:21:42;;;;;;;;;;;;;;;-3.03;100.00;99222.91;5112004;28;20025;-68
2021/01/29 08:24:18;;;;;;;;;;;;;;;-2.98;100.00;99220.03;5111722;28;20001;-68
2021/01/29 08:27:00;;;;;;;;;;;;;;;-2.86;100.00;99223.84;5112152;28;20007;-68
2021/01/29 08:29:40;;;;;;;;;;;;;;;-2.73;100.00;99218.78;5110144;28;20293;-67
2021/01/29 08:32:37;;;;;;;;;;;;;;;-2.73;100.00;99218.78;5092014;28;20381;-68
2021/01/29 08:35:17;;;;;;;;;;;;;;;-2.68;100.00;99214.09;5109874;28;19924;-67
2021/01/29 08:37:47;;;;;;;;;;;;;;;-2.70;100.00;99197.38;5109834;28;19962;-67
2021/01/29 08:40:21;;;;;;;;;;;;;;;-2.62;100.00;99192.56;5111124;28;19959;-68
2021/01/29 08:42:54;;;;;;;;;;;;;;;-2.59;100.00;99184.41;5112158;28;20023;-67
2021/01/29 08:45:30;;;;;;;;;;;;;;;-2.47;100.00;99182.03;5107445;28;21459;-68
2021/01/29 08:48:02;;;;;;;;;;;;;;;-2.45;100.00;99185.50;5091678;28;19931;-68
2021/01/29 08:50:43;;;;;;;;;;;;;;;-2.52;100.00;99180.50;5091437;28;19947;-68
2021/01/29 08:53:18;;;;;;;;;;;;;;;-2.36;100.00;99180.53;5087943;28;19970;-69
2021/01/29 08:55:55;;;;;;;;;;;;;;;-2.30;100.00;99181.16;5090749;28;20014;-68
2021/01/29 08:58:25;;;;;;;;;;;;;;;-2.25;100.00;99187.94;5091095;28;19977;-68
2021/01/29 09:00:59;;;;;;;;;;;;;;;-2.20;100.00;99185.91;5090715;28;19928;-69
2021/01/29 09:03:28;;;;;;;;;;;;;;;-2.17;100.00;99192.03;5090913;28;19963;-68
2021/01/29 09:06:00;;;;;;;;;;;;;;;-1.98;100.00;99190.06;5099573;28;20004;-68
2021/01/29 09:08:27;;;;;;;;;;;;;;;-1.80;100.00;99195.34;5103539;28;19959;-68
2021/01/29 09:10:59;;;;;;;;;;;;;;;-1.83;100.00;99192.84;5091405;28;19924;-68
2021/01/29 09:13:26;;;;;;;;;;;;;;;-1.96;100.00;99182.03;5091780;28;20025;-68
2021/01/29 09:15:54;;;;;;;;;;;;;;;-1.94;100.00;99183.66;5091051;28;20332;-68
2021/01/29 09:18:24;;;;;;;;;;;;;;;-2.14;100.00;99168.75;5097438;28;20031;-68
2021/01/29 09:20:59;;;;;;;;;;;;;;;-2.04;100.00;99163.84;5104789;28;20338;-68
2021/01/29 09:23:29;;;;;;;;;;;;;;;-2.04;100.00;99162.03;5111903;28;20027;-68
2021/01/29 09:26:02;;;;;;;;;;;;;;;-2.11;100.00;99154.44;5102684;28;20010;-69
2021/01/29 09:28:29;;;;;;;;;;;;;;;-1.90;100.00;99155.09;5091789;28;20031;-68
2021/01/29 09:30:57;;;;;;;;;;;;;;;-1.84;100.00;99152.09;5092980;28;20574;-68
2021/01/29 09:33:26;;;;;;;;;;;;;;;-1.76;100.00;99141.88;5107204;28;20383;-68
2021/01/29 09:35:55;;;;;;;;;;;;;;;-1.80;100.00;99134.16;5110561;28;20014;-68
2021/01/29 09:38:22;;;;;;;;;;;;;;;-2.04;100.00;99147.88;5111744;28;19969;-69
2021/01/29 09:40:52;;;;;;;;;;;;;;;-2.10;100.00;99151.72;5097995;28;20377;-69
2021/01/29 09:43:24;;;;;;;;;;;;;;;-1.97;100.00;99153.72;5091148;28;20429;-68
2021/01/29 09:45:53;;;;;;;;;;;;;;;-1.91;100.00;99148.91;5101831;28;20384;-69
2021/01/29 09:48:21;;;;;;;;;;;;;;;-1.81;100.00;99143.09;5110293;28;19931;-68
2021/01/29 09:50:50;;;;;;;;;;;;;;;-1.83;100.00;99129.88;5110885;28;20034;-68
2021/01/29 09:53:21;;;;;;;;;;;;;;;-1.81;100.00;99127.13;5111597;28;20381;-68
2021/01/29 09:55:53;;;;;;;;;;;;;;;-1.67;100.00;99126.34;5099163;28;20318;-68
2021/01/29 09:58:22;;;;;;;;;;;;;;;-1.53;100.00;99113.13;5091450;28;19924;-68
2021/01/29 10:00:58;;;;;;;;;;;;;;;-1.67;100.00;99113.91;5098971;28;20096;-68
2021/01/29 10:03:27;;;;;;;;;;;;;;;-1.72;100.00;99103.53;5103708;28;20482;-68
2021/01/29 10:05:54;;;;;;;;;;;;;;;-1.59;100.00;99111.69;5107476;28;19993;-68
2021/01/29 10:08:24;;;;;;;;;;;;;;;-1.45;100.00;99107.38;5108212;28;19967;-68
2021/01/29 10:10:58;;;;;;;;;;;;;;;-1.34;100.00;99104.94;5105715;28;20026;-68
2021/01/29 10:13:29;;;;;;;;;;;;;;;-1.47;100.00;99098.59;5099093;28;19977;-68
2021/01/29 10:16:07;;;;;;;;;;;;;;;-1.64;100.00;99088.91;5106142;28;19974;-68
2021/01/29 10:18:36;;;;;;;;;;;;;;;-1.65;100.00;99082.75;5093919;28;19963;-68
2021/01/29 10:21:04;;;;;;;;;;;;;;;-1.54;100.00;99083.00;5106774;28;20010;-68
2021/01/29 10:23:35;;;;;;;;;;;;;;;-1.54;100.00;99077.69;5114052;28;20022;-68
2021/01/29 10:26:08;;;;;;;;;;;;;;;-1.48;100.00;99091.56;5114764;28;19992;-69
2021/01/29 10:28:47;;;;;;;;;;;;;;;-1.52;100.00;99073.09;5109137;28;19931;-68
2021/01/29 10:31:15;;;;;;;;;;;;;;;-1.49;100.00;99082.72;5103338;28;20456;-68
2021/01/29 10:33:44;;;;;;;;;;;;;;;-1.21;100.00;99089.94;5095799;28;19959;-68
2021/01/29 10:36:12;;;;;;;;;;;;;;;-1.04;100.00;99088.13;5105714;28;19969;-68
2021/01/29 10:38:39;;;;;;;;;;;;;;;-1.03;100.00;99082.69;5095312;28;20088;-69
2021/01/29 10:41:18;;;;;;;;;;;;;;;-1.06;100.00;99076.69;5093418;28;20441;-68
2021/01/29 10:43:48;;;;;;;;;;;;;;;-1.27;100.00;99082.34;5096784;28;20361;-68
2021/01/29 10:46:38;;;;;;;;;;;;;;;-1.30;100.00;99089.66;5093909;28;19977;-68
2021/01/29 10:49:10;;;;;;;;;;;;;;;-1.31;100.00;99083.47;5078233;28;19979;-69
2021/01/29 10:51:42;;;;;;;;;;;;;;;-1.30;100.00;99087.81;5093306;28;20031;-68
2021/01/29 10:54:08;;;;;;;;;;;;;;;-1.31;100.00;99083.47;5093737;28;19969;-68
2021/01/29 10:56:41;;;;;;;;;;;;;;;-1.26;100.00;99085.84;5093096;28;19978;-69
2021/01/29 10:59:14;;;;;;;;;;;;;;;-1.31;100.00;99079.94;5094549;28;19981;-70
2021/01/29 11:01:43;;;;;;;;;;;;;;;-1.16;100.00;99086.16;5094097;28;19924;-70
2021/01/29 11:04:15;;;;;;;;;;;;;;;-0.95;100.00;99076.91;5102571;28;19939;-70
2021/01/29 11:06:44;;;;;;;;;;;;;;;-0.89;100.00;99076.53;5093847;28;20018;-69
2021/01/29 11:09:16;;;;;;;;;;;;;;;-0.80;100.00;99080.47;5100341;28;19967;-70
2021/01/29 11:11:43;;;;;;;;;;;;;;;-0.62;100.00;99073.13;5112845;28;19971;-69
2021/01/29 11:14:16;;;;;;;;;;;;;;;-0.53;100.00;99061.06;5103838;28;19967;-69
2021/01/29 11:16:46;;;;;;;;;;;;;;;-0.53;100.00;99063.72;5093489;28;19924;-69
2021/01/29 11:19:15;;;;;;;;;;;;;;;-0.55;100.00;99054.97;5098696;28;20333;-69
2021/01/29 11:21:47;;;;;;;;;;;;;;;-0.46;100.00;99056.22;5108268;28;20073;-69
2021/01/29 11:24:18;;;;;;;;;;;;;;;-0.41;100.00;99049.63;5103884;28;20026;-69
2021/01/29 11:26:47;;;;;;;;;;;;;;;-0.51;100.00;99044.03;5113412;28;19952;-69
2021/01/29 11:29:16;;;;;;;;;;;;;;;-0.51;100.00;99041.34;5113543;28;19967;-69
2021/01/29 11:31:45;;;;;;;;;;;;;;;-0.43;100.00;99029.34;5114159;28;20403;-69
2021/01/29 11:34:15;;;;;;;;;;;;;;;-0.38;100.00;99027.25;5109288;28;20317;-69
2021/01/29 11:36:42;;;;;;;;;;;;;;;-0.43;100.00;99026.69;5113526;28;20476;-69
2021/01/29 11:39:12;;;;;;;;;;;;;;;-0.34;100.00;99018.94;5106974;28;20034;-69
2021/01/29 11:41:46;;;;;;;;;;;;;;;-0.17;100.00;99011.69;5101024;28;20031;-69
2021/01/29 11:44:16;;;;;;;;;;;;;;;-0.26;100.00;99013.13;5091815;28;19924;-69
2021/01/29 11:46:49;;;;;;;;;;;;;;;-0.23;100.00;99001.41;5094363;28;20089;-69
2021/01/29 11:49:18;;;;;;;;;;;;;;;-0.08;100.00;98992.44;5097659;28;19959;-69
2021/01/29 11:51:55;;;;;;;;;;;;;;;-0.11;100.00;98986.44;5100224;28;19923;-69
2021/01/29 11:54:27;;;;;;;;;;;;;;;-0.05;100.00;98984.22;5108640;28;19959;-69
2021/01/29 11:56:58;;;;;;;;;;;;;;;0.13;100.00;98976.84;5112892;28;20018;-69
2021/01/29 11:59:29;;;;;;;;;;;;;;;0.22;100.00;98974.50;5113468;28;20012;-69
2021/01/29 12:01:59;;;;;;;;;;;;;;;0.42;100.00;98971.34;5113279;27;20027;-69
2021/01/29 12:04:27;;;;;;;;;;;;;;;0.44;100.00;98969.44;5113287;28;20416;-69
2021/01/29 12:06:58;;;;;;;;;;;;;;;0.70;100.00;98965.97;5112739;28;20018;-67
2021/01/29 12:09:32;;;;;;;;;;;;;;;1.00;100.00;98962.97;5113134;28;19958;-69
2021/01/29 12:12:01;;;;;;;;;;;;;;;1.27;100.00;98959.31;5113061;28;20001;-69
2021/01/29 12:14:30;;;;;;;;;;;;;;;1.10;100.00;98950.69;5113010;28;19931;-69
2021/01/29 12:16:58;;;;;;;;;;;;;;;1.13;100.00;98949.63;5109361;28;20046;-69
2021/01/29 12:19:27;;;;;;;;;;;;;;;1.15;100.00;98951.22;5112561;28;19928;-69
2021/01/29 12:21:57;;;;;;;;;;;;;;;0.91;100.00;98945.78;5112833;28;19923;-69
2021/01/29 12:24:31;;;;;;;;;;;;;;;0.71;100.00;98947.16;5112905;28;19974;-69
2021/01/29 12:27:00;;;;;;;;;;;;;;;0.74;100.00;98940.75;5112469;28;19980;-69
2021/01/29 12:29:31;;;;;;;;;;;;;;;0.74;100.00;98938.94;5110011;28;20345;-69
2021/01/29 12:32:00;;;;;;;;;;;;;;;0.57;100.00;98936.56;5110996;28;19971;-69
2021/01/29 12:34:29;;;;;;;;;;;;;;;0.56;100.00;98932.19;5112608;28;20297;-69
2021/01/29 12:36:59;;;;;;;;;;;;;;;0.82;100.00;98930.41;5112342;28;20050;-69
2021/01/29 12:39:27;;;;;;;;;;;;;;;0.97;100.00;98920.44;5106731;28;20026;-69
2021/01/29 12:41:54;;;;;;;;;;;;;;;1.10;100.00;98918.63;5102866;28;20384;-69
2021/01/29 12:44:32;;;;;;;;;;;;;;;1.08;100.00;98912.53;5096847;28;19971;-69
2021/01/29 12:47:06;;;;;;;;;;;;;;;0.99;100.00;98913.19;5104351;27;19923;-69
2021/01/29 12:49:38;;;;;;;;;;;;;;;1.08;100.00;98917.03;5097204;28;20034;-69
2021/01/29 12:52:07;;;;;;;;;;;;;;;1.13;100.00;98907.69;5104190;28;19997;-69
2021/01/29 12:54:37;;;;;;;;;;;;;;;0.89;100.00;98915.63;5112742;28;20022;-68
2021/01/29 12:57:04;;;;;;;;;;;;;;;0.83;100.00;98906.25;5112282;28;19924;-69
2021/01/29 12:59:34;;;;;;;;;;;;;;;0.57;100.00;98907.19;5112468;28;19962;-69
2021/01/29 13:02:06;;;;;;;;;;;;;;;0.54;100.00;98891.41;5109575;28;19984;-69
2021/01/29 13:04:36;;;;;;;;;;;;;;;0.57;100.00;98893.84;5112121;28;20448;-69
2021/01/29 13:07:08;;;;;;;;;;;;;;;0.37;100.00;98898.72;5109614;28;19955;-69
2021/01/29 13:09:43;;;;;;;;;;;;;;;0.36;100.00;98899.72;5094348;28;19928;-69
2021/01/29 13:12:20;;;;;;;;;;;;;;;0.43;100.00;98898.31;5107917;28;20018;-69
2021/01/29 13:14:54;;;;;;;;;;;;;;;0.53;100.00;98908.38;5111471;28;19992;-69
2021/01/29 13:17:26;;;;;;;;;;;;;;;0.54;100.00;98899.41;5112155;28;20010;-69
2021/01/29 13:20:04;;;;;;;;;;;;;;;0.54;100.00;98902.06;5108785;28;19932;-69
2021/01/29 13:22:33;;;;;;;;;;;;;;;0.33;100.00;98894.56;5101102;28;20404;-69